Meridian Lake, Colorado
Current Conditions -  °F | °C
As of 7:53 AM on Friday 19 Dec 2014 (Local Time) from KASE Reporting Station
Overcast Overcast  
Wind Chill: 10°   Ceiling: 5500
Heat Index: 19°   Visibility: 10mi
Dew Point: 13°   Wind: 7mph
Humidity: 77%   Direction: 170°S
Pressure: 30.17"   Gusts: NA
Location:  38.8977°N, 106.967°W
Report Text: KASE 191453Z 17006KT 10SM OVC055 M07/M11 A3017 RMK AO2 SLP228 60000 T10721106 51008
Loading
Personal Weather Stations






























Interactive Weather Map New forecast layout! Learn more

10-Day Weather Forecast

Advertisements
Track Severe Weather on mobile